Time;durP1;ratioP1;P1;durP2;ratioP2;P2;SDS_P1;SDS_P2;PMS_P1;PMS_P2;Temp;Humidity;BMP_temperature;BMP_pressure;BME280_temperature;BME280_humidity;BME280_pressure;Samples;Min_cycle;Max_cycle;Signal;HPM_P1;HPM_P2
2022/06/27 00:00:39;;;;;;;6.38;3.38;;;;;;;24.20;55.71;95191.00;5027414;28;20021;-53
2022/06/27 00:03:04;;;;;;;4.85;3.20;;;;;;;24.21;55.50;95195.19;5035907;28;20024;-53
2022/06/27 00:05:30;;;;;;;5.50;3.38;;;;;;;24.24;55.78;95196.88;5037609;28;20390;-53
2022/06/27 00:07:55;;;;;;;5.65;3.28;;;;;;;24.22;55.89;95199.41;5036788;28;20032;-53
2022/06/27 00:10:21;;;;;;;4.57;3.40;;;;;;;24.20;55.75;95195.69;5041716;28;20652;-52
2022/06/27 00:12:46;;;;;;;6.10;3.90;;;;;;;24.21;55.81;95197.91;5022846;28;20071;-54
2022/06/27 00:15:12;;;;;;;6.38;3.35;;;;;;;24.21;55.66;95202.63;5030951;28;20542;-51
2022/06/27 00:17:39;;;;;;;5.28;2.90;;;;;;;24.20;55.55;95201.91;5033695;28;20028;-52
2022/06/27 00:20:05;;;;;;;5.60;3.17;;;;;;;24.20;55.80;95196.44;5042119;28;20041;-54
2022/06/27 00:22:31;;;;;;;5.53;3.10;;;;;;;24.17;55.57;95197.47;5042874;28;20021;-52
2022/06/27 00:24:56;;;;;;;4.28;3.30;;;;;;;24.17;55.73;95202.94;5039391;28;20027;-53
2022/06/27 00:27:22;;;;;;;4.25;2.80;;;;;;;24.13;55.87;95197.00;5043568;28;20043;-53
2022/06/27 00:29:47;;;;;;;4.95;3.35;;;;;;;24.13;55.52;95202.47;5034316;28;20087;-53
2022/06/27 00:32:12;;;;;;;5.10;2.95;;;;;;;24.20;55.57;95201.91;5033575;28;20087;-54
2022/06/27 00:34:38;;;;;;;4.20;2.80;;;;;;;24.14;55.51;95193.03;5044446;28;20028;-53
2022/06/27 00:37:04;;;;;;;4.20;2.78;;;;;;;24.12;55.72;95194.78;5042226;28;20036;-53
2022/06/27 00:39:29;;;;;;;5.22;3.38;;;;;;;24.15;55.54;95194.50;5042737;28;20035;-53
2022/06/27 00:41:55;;;;;;;6.63;3.25;;;;;;;24.11;55.24;95191.31;5041459;28;20025;-56
2022/06/27 00:44:33;;;;;;;5.75;3.00;;;;;;;24.09;55.37;95191.06;5040827;28;20034;-52
2022/06/27 00:46:58;;;;;;;3.92;2.83;;;;;;;24.08;55.13;95195.06;5027883;28;20408;-51
2022/06/27 00:49:24;;;;;;;3.45;2.80;;;;;;;24.05;55.22;95190.63;5041141;28;20079;-51
2022/06/27 00:51:49;;;;;;;6.40;2.78;;;;;;;24.01;55.64;95192.16;5040257;28;20122;-51
2022/06/27 00:54:15;;;;;;;5.03;2.80;;;;;;;24.01;55.20;95189.44;5022406;28;20158;-52
2022/06/27 00:56:40;;;;;;;5.57;2.92;;;;;;;23.94;55.46;95185.25;5019683;28;20059;-53
2022/06/27 00:59:06;;;;;;;3.15;2.67;;;;;;;23.95;55.29;95186.72;5016495;28;20024;-52
2022/06/27 01:01:31;;;;;;;3.63;2.60;;;;;;;23.98;55.11;95180.25;5037628;28;20029;-53
2022/06/27 01:04:00;;;;;;;7.20;3.13;;;;;;;23.94;55.24;95179.78;5041707;28;20108;-51
2022/06/27 01:06:26;;;;;;;6.00;2.83;;;;;;;23.90;55.33;95173.88;5040490;28;20142;-52
2022/06/27 01:08:52;;;;;;;4.57;2.83;;;;;;;23.93;55.60;95178.34;5040471;28;20029;-53
2022/06/27 01:11:17;;;;;;;3.22;2.58;;;;;;;23.85;55.61;95175.94;5027545;28;20021;-52
2022/06/27 01:13:43;;;;;;;5.10;2.75;;;;;;;23.85;55.26;95171.19;5022417;28;20632;-53
2022/06/27 01:16:09;;;;;;;4.32;3.08;;;;;;;23.84;55.87;95174.44;5012899;28;20040;-52
2022/06/27 01:18:34;;;;;;;3.90;2.95;;;;;;;23.81;55.98;95164.53;5021968;28;20396;-52
2022/06/27 01:20:59;;;;;;;7.68;3.88;;;;;;;23.81;55.63;95168.03;5038219;28;20060;-53
2022/06/27 01:23:25;;;;;;;4.28;2.47;;;;;;;23.79;56.09;95167.78;5016350;28;20074;-53
2022/06/27 01:25:50;;;;;;;6.72;2.60;;;;;;;23.78;55.88;95171.00;5024419;28;20021;-52
2022/06/27 01:28:16;;;;;;;4.55;2.85;;;;;;;23.80;55.94;95172.00;5023307;28;20032;-52
2022/06/27 01:30:41;;;;;;;5.10;2.92;;;;;;;23.83;55.45;95172.97;5040479;28;20541;-52
2022/06/27 01:33:07;;;;;;;5.38;2.75;;;;;;;23.79;55.45;95172.50;5041002;28;20447;-52
2022/06/27 01:35:32;;;;;;;8.45;2.92;;;;;;;23.77;55.30;95175.72;5041821;28;20040;-52
2022/06/27 01:37:58;;;;;;;5.32;2.72;;;;;;;23.76;55.23;95174.25;5041897;28;20021;-53
2022/06/27 01:40:23;;;;;;;7.45;2.50;;;;;;;23.73;55.50;95171.81;5039957;28;20043;-51
2022/06/27 01:42:49;;;;;;;3.95;2.42;;;;;;;23.71;55.48;95177.75;5020608;28;20049;-51
2022/06/27 01:45:14;;;;;;;4.82;2.75;;;;;;;23.68;55.48;95183.50;5021845;28;20036;-51
2022/06/27 01:47:40;;;;;;;4.85;2.85;;;;;;;23.62;55.80;95190.94;5039792;28;20435;-51
2022/06/27 01:50:05;;;;;;;5.40;3.03;;;;;;;23.62;56.23;95191.69;5039596;28;20043;-52
2022/06/27 01:52:31;;;;;;;4.10;2.70;;;;;;;23.67;55.80;95195.66;5038269;28;20023;-51
2022/06/27 01:54:56;;;;;;;4.78;2.53;;;;;;;23.66;56.04;95191.44;5021569;28;20033;-54
2022/06/27 01:57:22;;;;;;;5.03;2.53;;;;;;;23.67;56.08;95199.09;5024461;28;20029;-54
2022/06/27 01:59:50;;;;;;;4.57;2.58;;;;;;;23.73;55.74;95185.44;5024330;28;20731;-53
2022/06/27 02:02:15;;;;;;;3.90;2.83;;;;;;;23.75;55.96;95193.84;5041328;28;20029;-52
2022/06/27 02:04:41;;;;;;;3.67;2.70;;;;;;;23.75;55.43;95199.28;5040483;28;20522;-51
2022/06/27 02:07:06;;;;;;;3.75;2.58;;;;;;;23.74;55.88;95204.00;5028857;28;20025;-52
2022/06/27 02:09:32;;;;;;;4.32;2.47;;;;;;;23.70;55.47;95200.81;5041024;28;20025;-51
2022/06/27 02:11:57;;;;;;;5.00;2.92;;;;;;;23.74;56.02;95200.56;5039287;28;20040;-53
2022/06/27 02:14:23;;;;;;;4.57;3.17;;;;;;;23.71;55.98;95209.75;5040898;28;20025;-53
2022/06/27 02:16:49;;;;;;;5.20;2.42;;;;;;;23.70;56.04;95213.72;5020322;28;20364;-53
2022/06/27 02:19:18;;;;;;;3.95;2.67;;;;;;;23.69;55.76;95201.31;5038858;28;20480;-53
2022/06/27 02:21:44;;;;;;;3.37;2.50;;;;;;;23.63;55.99;95208.75;5041253;28;20294;-53
2022/06/27 02:24:10;;;;;;;3.03;2.58;;;;;;;23.63;55.88;95211.50;5040097;28;20849;-53
2022/06/27 02:26:35;;;;;;;5.22;2.67;;;;;;;23.61;55.60;95214.00;5040915;28;20039;-53
2022/06/27 02:29:01;;;;;;;5.10;2.63;;;;;;;23.60;55.41;95215.22;5021880;28;20025;-53
2022/06/27 02:31:27;;;;;;;6.50;2.75;;;;;;;23.54;55.41;95217.25;5029615;28;20376;-53
2022/06/27 02:33:53;;;;;;;5.00;2.67;;;;;;;23.52;55.50;95219.75;5036103;28;20025;-54
2022/06/27 02:36:30;;;;;;;4.63;2.80;;;;;;;23.56;55.77;95220.22;5039457;28;20048;-53
2022/06/27 02:38:55;;;;;;;4.45;3.03;;;;;;;23.57;55.44;95221.69;5039688;28;20268;-53
2022/06/27 02:41:21;;;;;;;4.65;2.47;;;;;;;23.54;55.65;95223.47;5016780;28;20472;-52
2022/06/27 02:43:49;;;;;;;6.13;3.08;;;;;;;23.51;55.30;95218.25;5039696;28;20021;-52
2022/06/27 02:46:15;;;;;;;3.28;2.45;;;;;;;23.48;55.71;95219.28;5038180;28;20083;-51
2022/06/27 02:48:40;;;;;;;6.38;2.92;;;;;;;23.50;55.26;95222.25;5008061;28;20030;-54
2022/06/27 02:51:11;;;;;;;4.75;2.80;;;;;;;23.48;55.71;95224.72;5040978;28;20024;-54
2022/06/27 02:53:54;;;;;;;4.78;2.75;;;;;;;23.44;55.26;95240.63;5021289;28;20037;-52
2022/06/27 02:56:22;;;;;;;7.13;3.95;;;;;;;23.45;55.64;95236.63;5040147;28;20033;-52
2022/06/27 02:59:01;;;;;;;4.88;2.88;;;;;;;23.39;56.03;95233.19;5042337;28;20040;-53
2022/06/27 03:01:27;;;;;;;4.88;2.63;;;;;;;23.40;55.81;95229.22;5038505;28;20017;-53
2022/06/27 03:03:52;;;;;;;4.05;2.60;;;;;;;23.37;55.46;95241.16;5024103;28;20102;-53
2022/06/27 03:06:19;;;;;;;7.15;2.80;;;;;;;23.38;55.59;95237.91;5026383;28;20290;-53
2022/06/27 03:08:46;;;;;;;4.15;2.50;;;;;;;23.38;55.95;95242.63;5010139;28;20063;-53
2022/06/27 03:11:15;;;;;;;6.50;3.10;;;;;;;23.34;55.57;95242.16;5043102;28;20443;-53
2022/06/27 03:13:41;;;;;;;5.93;3.10;;;;;;;23.35;55.91;95238.19;5043757;28;20036;-53
2022/06/27 03:16:10;;;;;;;3.92;2.60;;;;;;;23.38;55.55;95242.63;5043136;28;20114;-52
2022/06/27 03:18:35;;;;;;;3.00;2.50;;;;;;;23.36;56.20;95241.66;5043638;28;20017;-52
2022/06/27 03:21:01;;;;;;;5.43;2.80;;;;;;;23.36;56.05;95239.66;5042135;28;20039;-53
2022/06/27 03:23:27;;;;;;;4.40;3.20;;;;;;;23.33;56.00;95240.66;5042331;28;20714;-52
2022/06/27 03:25:52;;;;;;;4.88;2.92;;;;;;;23.34;55.74;95239.41;5039187;28;20045;-52
2022/06/27 03:28:17;;;;;;;3.90;2.58;;;;;;;23.35;55.87;95232.75;5040596;28;20052;-52
2022/06/27 03:30:43;;;;;;;4.10;2.83;;;;;;;23.37;55.92;95230.25;5039401;28;20033;-51
2022/06/27 03:33:09;;;;;;;4.38;2.58;;;;;;;23.34;55.96;95231.25;5042364;28;20049;-52
2022/06/27 03:35:34;;;;;;;4.05;2.67;;;;;;;23.36;55.94;95238.91;5032002;28;20037;-53
2022/06/27 03:38:00;;;;;;;3.47;2.78;;;;;;;23.35;55.75;95237.44;5029591;28;20040;-53
2022/06/27 03:40:25;;;;;;;4.75;2.88;;;;;;;23.32;56.21;95236.47;5041619;28;20043;-53
2022/06/27 03:42:51;;;;;;;5.63;2.83;;;;;;;23.33;56.33;95243.38;5023693;28;20056;-53
2022/06/27 03:45:16;;;;;;;5.65;2.95;;;;;;;23.34;56.01;95236.69;5028777;28;20534;-51
2022/06/27 03:47:50;;;;;;;3.83;2.70;;;;;;;23.33;56.47;95240.66;5026734;28;20029;-53
2022/06/27 03:50:18;;;;;;;6.40;3.25;;;;;;;23.32;56.73;95244.66;5027569;28;20489;-53
2022/06/27 03:52:44;;;;;;;5.80;3.20;;;;;;;23.35;56.54;95238.19;5026460;28;20026;-52
2022/06/27 03:55:10;;;;;;;4.57;2.53;;;;;;;23.37;56.67;95247.31;5033495;28;20056;-53
2022/06/27 03:57:45;;;;;;;5.95;3.08;;;;;;;23.41;56.56;95247.06;5002705;28;20443;-52
2022/06/27 04:00:11;;;;;;;5.18;3.30;;;;;;;23.39;56.30;95246.81;5031256;28;20047;-53
2022/06/27 04:02:36;;;;;;;5.72;3.15;;;;;;;23.42;56.78;95248.53;5040501;28;20052;-52
2022/06/27 04:05:03;;;;;;;4.55;3.17;;;;;;;23.45;56.94;95250.25;5031343;28;20032;-53
2022/06/27 04:07:28;;;;;;;5.53;2.97;;;;;;;23.45;57.20;95242.84;5031681;28;20503;-52
2022/06/27 04:09:54;;;;;;;6.22;3.33;;;;;;;23.45;57.19;95247.53;5037880;28;20075;-52
2022/06/27 04:12:20;;;;;;;5.32;3.72;;;;;;;23.52;56.73;95236.84;5029878;28;20022;-53
2022/06/27 04:14:45;;;;;;;6.03;3.72;;;;;;;23.60;57.09;95237.03;5029072;28;20040;-55
2022/06/27 04:17:11;;;;;;;5.18;3.70;;;;;;;23.69;56.94;95239.50;5040713;28;20032;-54
2022/06/27 04:19:36;;;;;;;6.75;3.85;;;;;;;23.80;56.88;95244.91;5027185;28;20026;-54
2022/06/27 04:22:02;;;;;;;4.95;3.75;;;;;;;23.90;56.49;95238.59;5009643;28;20029;-53
2022/06/27 04:24:27;;;;;;;6.57;4.03;;;;;;;23.99;55.75;95235.56;5027396;28;20025;-53
2022/06/27 04:26:53;;;;;;;5.25;3.58;;;;;;;24.07;56.08;95239.97;5027323;28;20033;-52
2022/06/27 04:29:19;;;;;;;5.22;3.95;;;;;;;24.14;56.01;95241.38;5025595;28;20404;-55
2022/06/27 04:31:44;;;;;;;6.22;3.97;;;;;;;24.24;55.41;95237.81;5003122;28;20042;-54
2022/06/27 04:34:12;;;;;;;5.95;4.07;;;;;;;24.32;55.33;95248.94;5007009;28;20459;-54
2022/06/27 04:36:38;;;;;;;5.88;3.90;;;;;;;24.46;54.97;95248.59;5005160;28;20538;-57
2022/06/27 04:39:04;;;;;;;6.18;3.58;;;;;;;24.53;55.02;95245.31;5019124;28;20056;-54
2022/06/27 04:41:29;;;;;;;6.63;4.10;;;;;;;24.60;54.91;95244.72;5013802;28;20033;-53
2022/06/27 04:43:55;;;;;;;7.00;3.70;;;;;;;24.74;54.09;95243.59;5022551;28;20033;-54
2022/06/27 04:46:21;;;;;;;7.40;4.30;;;;;;;24.85;53.88;95250.41;5018766;28;20045;-52
2022/06/27 04:48:48;;;;;;;8.20;4.95;;;;;;;24.85;53.92;95244.94;5021485;28;20490;-55
2022/06/27 04:51:14;;;;;;;7.28;4.50;;;;;;;24.92;53.82;95236.19;5022124;28;20025;-54
2022/06/27 04:53:40;;;;;;;8.93;4.30;;;;;;;24.97;53.30;95240.84;5021851;28;20117;-53
2022/06/27 04:56:08;;;;;;;9.48;4.60;;;;;;;25.12;53.15;95238.47;5003503;28;20038;-51
2022/06/27 04:58:34;;;;;;;7.75;4.30;;;;;;;25.18;52.91;95241.88;5010213;28;20038;-54
2022/06/27 05:01:00;;;;;;;6.97;4.10;;;;;;;25.10;53.64;95237.50;5003721;28;20258;-54
2022/06/27 05:03:26;;;;;;;6.93;5.03;;;;;;;25.21;53.40;95240.84;5006835;28;20030;-54
2022/06/27 05:05:52;;;;;;;9.23;4.60;;;;;;;25.07;53.71;95244.00;5014315;28;20139;-53
2022/06/27 05:08:17;;;;;;;6.22;4.07;;;;;;;25.14;53.38;95249.63;5003366;28;20474;-53
2022/06/27 05:10:43;;;;;;;11.85;4.43;;;;;;;25.20;53.01;95247.56;5006105;28;20066;-53
2022/06/27 05:13:09;;;;;;;8.85;4.70;;;;;;;25.28;52.84;95253.94;5010045;28;20088;-54
2022/06/27 05:15:36;;;;;;;13.90;4.57;;;;;;;25.27;52.80;95244.25;5004716;28;20034;-54
2022/06/27 05:18:03;;;;;;;8.65;4.78;;;;;;;25.43;52.23;95251.50;5005575;28;20030;-53
2022/06/27 05:20:30;;;;;;;9.65;5.00;;;;;;;25.28;52.60;95259.41;5006444;28;20021;-54
2022/06/27 05:22:56;;;;;;;9.00;4.63;;;;;;;25.28;52.66;95269.59;5014442;28;20412;-54
2022/06/27 05:25:21;;;;;;;8.65;4.60;;;;;;;25.28;52.48;95259.41;5006454;28;20045;-54
2022/06/27 05:27:47;;;;;;;7.32;4.07;;;;;;;25.25;52.46;95254.22;5003106;28;20394;-53
2022/06/27 05:30:13;;;;;;;8.57;4.80;;;;;;;25.37;52.14;95248.09;5004624;28;20020;-53
2022/06/27 05:32:39;;;;;;;5.97;4.88;;;;;;;25.41;52.59;95257.47;5020169;28;20048;-53
2022/06/27 05:35:06;;;;;;;11.13;5.00;;;;;;;25.31;52.22;95261.09;5029598;28;20492;-54
2022/06/27 05:37:31;;;;;;;9.25;5.03;;;;;;;25.43;52.01;95265.16;5025793;28;20029;-53
2022/06/27 05:39:57;;;;;;;7.85;4.72;;;;;;;25.26;52.63;95261.91;5026399;28;20033;-53
2022/06/27 05:42:23;;;;;;;6.10;4.45;;;;;;;25.28;52.83;95273.06;5033943;28;20017;-52
2022/06/27 05:44:48;;;;;;;7.90;4.68;;;;;;;25.18;53.42;95276.66;5037374;28;20048;-52
2022/06/27 05:47:14;;;;;;;9.05;4.85;;;;;;;25.25;53.18;95265.88;5034540;28;20068;-54
2022/06/27 05:49:39;;;;;;;8.57;4.78;;;;;;;25.27;52.96;95268.84;5043566;28;20029;-54
2022/06/27 05:52:05;;;;;;;10.65;4.88;;;;;;;25.21;53.44;95268.16;5036003;28;20028;-56
2022/06/27 05:54:31;;;;;;;8.05;5.10;;;;;;;25.23;53.39;95270.38;5020729;28;20105;-57
2022/06/27 05:56:58;;;;;;;10.48;4.90;;;;;;;25.27;53.17;95268.84;5028195;28;20026;-55
2022/06/27 05:59:24;;;;;;;10.30;4.95;;;;;;;25.27;52.98;95268.84;5041126;28;20021;-57
2022/06/27 06:01:51;;;;;;;9.65;4.95;;;;;;;25.35;52.90;95269.72;5035435;28;20029;-56
2022/06/27 06:04:17;;;;;;;6.90;4.63;;;;;;;25.41;53.40;95273.13;5031707;28;20126;-56
2022/06/27 06:06:43;;;;;;;9.57;4.93;;;;;;;25.50;52.85;95272.78;5040113;28;20028;-57
2022/06/27 06:09:09;;;;;;;9.30;4.85;;;;;;;25.47;52.63;95273.81;5024399;28;20672;-56
2022/06/27 06:11:34;;;;;;;8.32;4.57;;;;;;;25.55;52.61;95271.97;5023635;28;20045;-56
2022/06/27 06:13:59;;;;;;;9.27;4.60;;;;;;;25.53;52.44;95269.75;5027670;28;20030;-53
2022/06/27 06:16:25;;;;;;;6.80;4.07;;;;;;;25.57;52.62;95269.47;5021573;28;20041;-55
2022/06/27 06:18:53;;;;;;;6.65;4.50;;;;;;;25.58;52.79;95270.94;5026237;28;20211;-52
2022/06/27 06:21:22;;;;;;;10.93;5.50;;;;;;;25.62;52.37;95265.91;5002793;28;20021;-52
2022/06/27 06:23:49;;;;;;;7.83;4.80;;;;;;;25.76;52.46;95281.19;5010439;28;20025;-53
2022/06/27 06:26:16;;;;;;;9.75;4.50;;;;;;;25.84;52.21;95278.06;5014546;28;20423;-52
2022/06/27 06:28:46;;;;;;;9.98;4.97;;;;;;;25.72;52.24;95280.72;5018945;28;20063;-52
2022/06/27 06:31:14;;;;;;;;;;;;;;;25.85;51.81;95282.25;5032156;28;20037;-52
2022/06/27 06:33:40;;;;;;;6.40;4.45;;;;;;;25.98;51.60;95282.34;5031604;28;19924;-52
2022/06/27 06:36:06;;;;;;;7.93;4.75;;;;;;;26.10;51.75;95283.66;5029838;28;20356;-55
2022/06/27 06:38:31;;;;;;;5.57;4.50;;;;;;;26.38;50.90;95275.75;5029808;28;20096;-52
2022/06/27 06:40:57;;;;;;;5.70;4.13;;;;;;;26.82;49.94;95276.47;5033380;28;20021;-52
2022/06/27 06:43:23;;;;;;;11.95;5.28;;;;;;;27.08;49.61;95282.00;5042539;28;20032;-53
2022/06/27 06:45:48;;;;;;;8.95;4.95;;;;;;;27.23;49.24;95276.72;5035616;28;20405;-53
2022/06/27 06:48:17;;;;;;;7.32;4.20;;;;;;;27.16;49.30;95282.84;5033111;28;20033;-53
2022/06/27 06:50:43;;;;;;;7.47;4.63;;;;;;;27.30;48.29;95276.09;5032508;28;20713;-52
2022/06/27 06:53:08;;;;;;;9.50;4.20;;;;;;;27.27;48.57;95277.88;5032318;28;20079;-52
2022/06/27 06:55:34;;;;;;;9.90;4.45;;;;;;;27.28;48.52;95284.13;5031177;28;20037;-53
2022/06/27 06:57:59;;;;;;;8.40;4.53;;;;;;;27.35;48.96;95297.19;5030102;28;20456;-52
2022/06/27 07:00:25;;;;;;;6.10;4.25;;;;;;;27.10;49.10;95290.44;5040106;28;20089;-52
2022/06/27 07:02:52;;;;;;;7.53;4.65;;;;;;;27.06;48.99;95295.50;5029981;28;20025;-54
2022/06/27 07:05:17;;;;;;;6.28;4.53;;;;;;;27.04;49.01;95300.78;5025001;28;20649;-52
2022/06/27 07:07:43;;;;;;;8.25;4.40;;;;;;;27.06;49.50;95301.00;5023690;28;20040;-51
2022/06/27 07:10:09;;;;;;;8.18;4.70;;;;;;;27.00;49.49;95297.59;5029501;28;20052;-54
2022/06/27 07:12:36;;;;;;;7.47;3.83;;;;;;;27.08;48.96;95294.97;5027388;28;20034;-55
2022/06/27 07:15:05;;;;;;;6.10;3.88;;;;;;;27.05;48.98;95294.00;5025331;28;20036;-53
2022/06/27 07:17:42;;;;;;;8.80;4.15;;;;;;;26.86;49.15;95304.31;5024610;28;20519;-52
2022/06/27 07:20:08;;;;;;;7.60;4.18;;;;;;;26.68;48.98;95304.41;5033994;28;20025;-54
2022/06/27 07:22:34;;;;;;;7.00;4.10;;;;;;;26.84;48.47;95308.84;5025875;28;20037;-54
2022/06/27 07:25:00;;;;;;;6.30;3.92;;;;;;;26.63;49.63;95301.75;5033970;28;20056;-53
2022/06/27 07:27:25;;;;;;;8.57;3.97;;;;;;;26.76;49.01;95304.53;5027992;28;20072;-52
2022/06/27 07:29:52;;;;;;;5.25;3.80;;;;;;;26.76;48.53;95300.50;5025170;28;20026;-52
2022/06/27 07:32:18;;;;;;;7.55;4.15;;;;;;;26.67;48.72;95296.72;5025047;28;20048;-52
2022/06/27 07:34:43;;;;;;;5.97;3.75;;;;;;;26.63;48.92;95296.25;5022791;28;20029;-54
2022/06/27 07:37:09;;;;;;;6.55;3.47;;;;;;;26.75;48.60;95303.03;5027566;28;20090;-53
2022/06/27 07:39:34;;;;;;;7.90;4.22;;;;;;;26.62;48.65;95294.78;5032373;28;20029;-53
2022/06/27 07:42:00;;;;;;;8.90;3.72;;;;;;;26.55;48.74;95300.88;5026517;28;20045;-52
2022/06/27 07:44:26;;;;;;;7.93;3.65;;;;;;;26.45;49.32;95308.00;5008585;28;20048;-52
2022/06/27 07:46:51;;;;;;;7.30;4.05;;;;;;;26.46;49.00;95304.75;5022537;28;20022;-52
2022/06/27 07:49:17;;;;;;;6.45;3.75;;;;;;;26.50;48.96;95298.97;5021583;28;20021;-52
2022/06/27 07:51:42;;;;;;;7.80;3.55;;;;;;;26.42;48.76;95300.84;5023181;28;20733;-52
2022/06/27 07:54:10;;;;;;;8.18;3.92;;;;;;;26.40;48.54;95300.63;5026347;28;20024;-54
2022/06/27 07:56:36;;;;;;;8.70;3.63;;;;;;;26.36;48.63;95300.19;5026596;28;20779;-54
2022/06/27 07:59:03;;;;;;;5.30;3.70;;;;;;;26.32;48.80;95294.28;5026167;28;20088;-52
2022/06/27 08:01:28;;;;;;;7.00;3.70;;;;;;;26.32;48.31;95294.28;5033258;28;20048;-52
2022/06/27 08:03:54;;;;;;;5.93;3.70;;;;;;;26.35;48.37;95293.97;5027581;28;20028;-52
2022/06/27 08:06:27;;;;;;;8.25;3.88;;;;;;;26.35;47.88;95301.44;5025108;28;20033;-52
2022/06/27 08:08:57;;;;;;;6.22;4.00;;;;;;;26.34;47.87;95292.50;5027681;28;20183;-52
2022/06/27 08:11:24;;;;;;;;;;;;;;;26.27;48.31;95297.81;5039356;28;20028;-52
2022/06/27 08:13:52;;;;;;;5.57;3.50;;;;;;;26.28;48.33;95289.09;5043626;28;19939;-54
2022/06/27 08:16:18;;;;;;;8.57;3.78;;;;;;;26.35;48.36;95293.22;5042305;28;20116;-52
2022/06/27 08:18:46;;;;;;;6.55;4.00;;;;;;;26.32;48.50;95294.28;5024444;28;20031;-52
2022/06/27 08:21:13;;;;;;;8.38;4.15;;;;;;;26.32;48.59;95299.75;5034633;28;20107;-51
2022/06/27 08:23:39;;;;;;;8.98;4.35;;;;;;;26.37;48.57;95296.19;5033900;28;20030;-52
2022/06/27 08:26:06;;;;;;;9.02;4.22;;;;;;;26.33;48.48;95295.75;5024547;28;20028;-52
2022/06/27 08:28:33;;;;;;;10.10;5.10;;;;;;;26.37;48.32;95290.72;5034762;28;20021;-53
2022/06/27 08:31:01;;;;;;;9.63;5.38;;;;;;;26.39;48.51;95290.94;5036119;28;20070;-52
2022/06/27 08:33:30;;;;;;;7.32;5.00;;;;;;;26.34;48.31;95291.78;5034113;28;20028;-52
2022/06/27 08:35:56;;;;;;;6.38;4.47;;;;;;;26.41;47.99;95291.13;5024780;28;20021;-52
2022/06/27 08:38:22;;;;;;;11.25;5.00;;;;;;;26.43;47.73;95289.38;5041872;28;20044;-52
2022/06/27 08:40:50;;;;;;;7.10;4.30;;;;;;;26.48;47.95;95279.59;5039247;28;20033;-53
2022/06/27 08:43:15;;;;;;;7.35;4.40;;;;;;;26.42;48.25;95281.66;5030261;28;20017;-53
2022/06/27 08:45:43;;;;;;;8.07;4.38;;;;;;;26.45;48.23;95286.84;5031520;28;20043;-53
2022/06/27 08:48:09;;;;;;;6.32;4.05;;;;;;;26.45;48.46;95286.84;5040292;28;20409;-53
2022/06/27 08:50:35;;;;;;;6.57;3.88;;;;;;;26.48;48.11;95285.06;5038679;28;20037;-53
2022/06/27 08:53:01;;;;;;;6.80;3.67;;;;;;;26.47;48.01;95286.31;5022362;28;20033;-53
2022/06/27 08:55:27;;;;;;;3.83;3.20;;;;;;;26.49;48.21;95286.53;5015168;28;20094;-56
2022/06/27 08:57:52;;;;;;;6.35;3.63;;;;;;;26.48;47.46;95280.31;5039448;28;20048;-58
2022/06/27 09:00:18;;;;;;;5.10;3.55;;;;;;;26.58;47.58;95283.41;5032235;28;20029;-52
2022/06/27 09:02:44;;;;;;;5.68;3.58;;;;;;;26.59;47.49;95279.38;5026372;28;20108;-63
2022/06/27 09:05:18;;;;;;;7.22;3.70;;;;;;;26.63;47.71;95279.81;5030792;28;20582;-54
2022/06/27 09:07:48;;;;;;;4.93;3.47;;;;;;;26.62;47.86;95278.34;5032687;28;20510;-54
2022/06/27 09:10:27;;;;;;;6.63;3.30;;;;;;;26.73;47.66;95278.16;5027498;28;20067;-54
2022/06/27 09:13:14;;;;;;;5.10;3.53;;;;;;;26.78;47.24;95280.78;5021595;28;20037;-54
2022/06/27 09:16:01;;;;;;;4.05;3.25;;;;;;;26.84;47.15;95279.41;5022239;28;20037;-55
2022/06/27 09:18:32;;;;;;;4.30;3.08;;;;;;;27.00;47.34;95288.66;5025649;28;20026;-54
2022/06/27 09:20:58;;;;;;;4.40;3.17;;;;;;;27.08;46.63;95282.00;5028464;28;20010;-53
2022/06/27 09:23:53;;;;;;;5.30;3.70;;;;;;;27.24;46.98;95283.69;5025804;28;20734;-54
2022/06/27 09:26:28;;;;;;;3.65;2.97;;;;;;;27.38;46.01;95279.66;5024705;28;20120;-54
2022/06/27 09:29:00;;;;;;;5.10;3.38;;;;;;;27.53;45.78;95277.16;5027452;28;20066;-53
2022/06/27 09:31:26;;;;;;;5.10;3.20;;;;;;;27.61;45.88;95283.44;5024251;28;20053;-53
2022/06/27 09:34:14;;;;;;;4.07;2.95;;;;;;;27.79;45.27;95273.06;5026981;28;20405;-54
2022/06/27 09:36:51;;;;;;;4.38;2.92;;;;;;;27.92;44.82;95270.31;5030996;28;20044;-54
2022/06/27 09:39:24;;;;;;;5.53;2.85;;;;;;;27.99;44.08;95268.91;5040560;28;20064;-55
2022/06/27 09:42:05;;;;;;;5.85;2.97;;;;;;;27.95;44.57;95266.50;5042197;28;20036;-55
2022/06/27 09:44:32;;;;;;;8.18;3.30;;;;;;;28.15;44.57;95262.31;5039219;28;20126;-54
2022/06/27 09:47:10;;;;;;;6.57;3.28;;;;;;;28.26;44.42;95271.03;5014623;28;20056;-54
2022/06/27 09:49:37;;;;;;;6.93;3.13;;;;;;;28.38;44.68;95272.25;5027330;28;20095;-53
2022/06/27 09:52:08;;;;;;;6.32;3.05;;;;;;;28.42;43.55;95272.66;5037212;28;20162;-53
2022/06/27 09:54:34;;;;;;;5.53;3.20;;;;;;;28.56;43.49;95271.28;5023475;28;20020;-54
2022/06/27 09:57:00;;;;;;;4.05;3.10;;;;;;;28.71;43.19;95260.44;5039295;28;20059;-54
2022/06/27 09:59:26;;;;;;;4.35;3.03;;;;;;;28.70;43.61;95262.47;5025213;28;20559;-53
2022/06/27 10:01:51;;;;;;;7.07;3.30;;;;;;;28.85;43.18;95263.31;5023172;28;20139;-54
2022/06/27 10:04:17;;;;;;;4.68;2.92;;;;;;;28.94;43.03;95257.31;5027123;28;20017;-53
2022/06/27 10:06:43;;;;;;;4.32;2.92;;;;;;;28.97;42.31;95261.75;5042615;28;20511;-52
2022/06/27 10:09:09;;;;;;;4.45;2.90;;;;;;;29.04;42.12;95255.53;5034679;28;20032;-53
2022/06/27 10:11:38;;;;;;;8.88;3.20;;;;;;;29.05;41.99;95256.28;5042126;28;20029;-53
2022/06/27 10:14:10;;;;;;;3.60;2.70;;;;;;;29.10;41.73;95253.38;5029143;28;20040;-53
2022/06/27 10:16:40;;;;;;;5.43;2.60;;;;;;;29.17;41.63;95247.91;5028391;28;20044;-53
2022/06/27 10:19:06;;;;;;;4.35;3.15;;;;;;;29.23;42.05;95251.28;4996358;28;20056;-51
2022/06/27 10:21:41;;;;;;;2.95;2.47;;;;;;;29.33;41.55;95249.50;5009950;28;20059;-53
2022/06/27 10:24:19;;;;;;;4.63;2.72;;;;;;;29.34;41.41;95244.72;5029250;28;20531;-52
2022/06/27 10:26:48;;;;;;;5.90;2.88;;;;;;;29.42;41.67;95242.78;5031334;28;20408;-52
2022/06/27 10:29:33;;;;;;;4.55;3.10;;;;;;;29.39;41.04;95241.84;5032487;28;20033;-51
2022/06/27 10:32:03;;;;;;;5.25;2.90;;;;;;;29.53;41.31;95239.69;5028618;28;20152;-53
2022/06/27 10:34:37;;;;;;;;;;;;;;;29.53;40.61;95240.41;5029512;28;20017;-54
2022/06/27 10:37:21;;;;;;;4.97;2.90;;;;;;;29.59;41.15;95237.50;5030943;28;19951;-52
2022/06/27 10:39:49;;;;;;;4.38;3.03;;;;;;;29.56;41.57;95233.09;5028052;28;20029;-53
2022/06/27 10:42:44;;;;;;;3.90;2.75;;;;;;;29.69;40.86;95236.44;5012395;28;20104;-53
2022/06/27 10:45:21;;;;;;;5.43;2.92;;;;;;;29.67;41.20;95234.25;4998958;28;20045;-54
2022/06/27 10:47:47;;;;;;;4.47;2.92;;;;;;;29.80;41.06;95225.84;5026928;28;20119;-52
2022/06/27 10:50:14;;;;;;;3.25;2.60;;;;;;;29.78;41.00;95228.41;5029768;28;20017;-51
2022/06/27 10:52:39;;;;;;;3.45;2.60;;;;;;;29.91;40.60;95230.28;5029486;28;20397;-53
2022/06/27 10:55:24;;;;;;;4.80;2.67;;;;;;;29.79;40.81;95232.66;5028662;28;20036;-53
2022/06/27 10:57:51;;;;;;;4.25;2.72;;;;;;;29.79;40.96;95229.91;5026571;28;20036;-55
2022/06/27 11:00:42;;;;;;;4.80;2.50;;;;;;;29.71;41.51;95223.59;5024824;28;20562;-56
2022/06/27 11:03:20;;;;;;;4.20;2.70;;;;;;;29.86;40.84;95229.16;4998862;28;20059;-52
2022/06/27 11:06:00;;;;;;;4.97;2.65;;;;;;;29.87;40.95;95227.91;5027126;28;20118;-52
2022/06/27 11:08:25;;;;;;;;;;;;;;;29.92;40.64;95221.47;5027787;28;20036;-52
2022/06/27 11:10:51;;;;;;;4.07;2.53;;;;;;;30.03;40.49;95223.91;5025896;28;19924;-52
2022/06/27 11:13:35;;;;;;;4.85;2.85;;;;;;;30.07;40.42;95221.50;5029205;28;20029;-51
2022/06/27 11:16:02;;;;;;;5.00;2.45;;;;;;;30.02;40.60;95225.19;5026028;28;20028;-53
2022/06/27 11:18:38;;;;;;;4.03;2.80;;;;;;;30.03;40.32;95221.16;5030462;28;20060;-54
2022/06/27 11:21:04;;;;;;;3.13;2.58;;;;;;;29.98;40.15;95219.28;5018907;28;20025;-52
2022/06/27 11:23:30;;;;;;;4.03;2.63;;;;;;;30.01;40.58;95218.19;4995511;28;20375;-54
2022/06/27 11:25:57;;;;;;;3.17;2.58;;;;;;;29.94;40.42;95218.16;5013550;28;20580;-52
2022/06/27 11:33:50;;;;;;;5.15;2.67;;;;;;;29.85;40.76;95216.69;5027006;28;20301;-52
2022/06/27 11:36:15;;;;;;;4.32;2.70;;;;;;;29.73;41.10;95210.03;5022248;28;20492;-53
2022/06/27 11:38:45;;;;;;;3.33;2.47;;;;;;;29.67;41.42;95209.47;4995248;28;20090;-52
2022/06/27 11:41:12;;;;;;;3.50;2.30;;;;;;;29.62;41.64;95215.13;5027159;28;20098;-52